Time;durP1;ratioP1;P1;durP2;ratioP2;P2;SDS_P1;SDS_P2;PMS_P1;PMS_P2;Temp;Humidity;BMP_temperature;BMP_pressure;BME280_temperature;BME280_humidity;BME280_pressure;Samples;Min_cycle;Max_cycle;Signal;HPM_P1;HPM_P2
2022/09/10 00:00:38;;;;;;;18.60;17.48;;;;;;;20.85;71.88;101362.78;4997376;28;102072;-55
2022/09/10 00:03:05;;;;;;;18.85;17.65;;;;;;;20.84;72.48;101361.97;5008043;28;103940;-55
2022/09/10 00:05:37;;;;;;;17.15;16.15;;;;;;;20.84;72.20;101361.97;5017501;28;101997;-55
2022/09/10 00:08:05;;;;;;;16.63;15.63;;;;;;;20.83;72.41;101360.34;5016738;28;102281;-55
2022/09/10 00:10:37;;;;;;;15.77;14.77;;;;;;;20.84;72.22;101361.97;5017187;28;102706;-54
2022/09/10 00:13:03;;;;;;;16.17;15.07;;;;;;;20.84;72.22;101367.50;4999407;28;103823;-55
2022/09/10 00:15:30;;;;;;;17.27;16.17;;;;;;;20.84;72.14;101361.97;4996374;28;102462;-55
2022/09/10 00:17:59;;;;;;;16.85;15.82;;;;;;;20.83;72.36;101365.88;4992793;28;102328;-55
2022/09/10 00:20:26;;;;;;;17.02;15.85;;;;;;;20.84;72.21;101367.50;4997942;28;102235;-55
2022/09/10 00:22:53;;;;;;;17.00;16.00;;;;;;;20.84;72.11;101367.50;4995689;28;103857;-55
2022/09/10 00:25:19;;;;;;;16.35;15.27;;;;;;;20.84;72.35;101359.22;5014885;28;102312;-55
2022/09/10 00:27:46;;;;;;;17.27;16.17;;;;;;;20.83;72.04;101374.16;5015172;28;102477;-55
2022/09/10 00:30:13;;;;;;;17.33;16.23;;;;;;;20.84;72.22;101361.97;4998679;28;102284;-55
2022/09/10 00:32:39;;;;;;;16.55;15.60;;;;;;;20.83;72.41;101352.03;5010408;28;103995;-55
2022/09/10 00:35:08;;;;;;;16.60;15.63;;;;;;;20.83;72.65;101343.72;5015615;28;102118;-55
2022/09/10 00:37:34;;;;;;;17.13;16.13;;;;;;;20.83;72.91;101348.44;5015581;28;102816;-55
2022/09/10 00:40:01;;;;;;;19.42;18.10;;;;;;;20.81;72.60;101346.03;4998643;27;102493;-54
2022/09/10 00:42:28;;;;;;;15.48;14.60;;;;;;;20.83;72.68;101345.69;5015078;27;107993;-54
2022/09/10 00:45:01;;;;;;;16.95;15.85;;;;;;;20.83;72.46;101349.25;5000601;28;102199;-54
2022/09/10 00:47:33;;;;;;;17.15;16.05;;;;;;;20.83;72.43;101352.03;5015288;28;102203;-54
2022/09/10 00:50:05;;;;;;;17.30;16.30;;;;;;;20.83;72.35;101343.72;5016333;28;102296;-54
2022/09/10 00:52:34;;;;;;;16.13;15.23;;;;;;;20.84;72.17;101344.53;5012952;28;103842;-55
2022/09/10 00:55:01;;;;;;;17.45;16.15;;;;;;;20.83;72.49;101349.25;4995159;28;102327;-55
2022/09/10 00:57:28;;;;;;;18.95;17.75;;;;;;;20.83;72.33;101342.91;4996132;28;102551;-55
2022/09/10 00:59:59;;;;;;;15.68;14.57;;;;;;;20.83;72.51;101345.69;4996786;28;102458;-55
2022/09/10 01:02:26;;;;;;;16.27;15.27;;;;;;;20.82;72.44;101342.13;5001014;28;103960;-55
2022/09/10 01:04:54;;;;;;;17.83;16.77;;;;;;;20.82;72.66;101344.06;5016412;28;101992;-54
2022/09/10 01:07:23;;;;;;;16.85;15.88;;;;;;;20.83;72.31;101342.91;5014783;28;102101;-55
2022/09/10 01:09:51;;;;;;;16.90;15.83;;;;;;;20.82;72.37;101342.13;5009536;28;102499;-54
2022/09/10 01:12:34;;;;;;;15.10;14.10;;;;;;;20.82;72.52;101328.28;5014702;28;103794;-55
2022/09/10 01:15:12;;;;;;;14.65;13.55;;;;;;;20.82;72.38;101331.03;5015614;28;101945;-55
2022/09/10 01:17:55;;;;;;;15.65;14.65;;;;;;;20.82;72.47;101331.03;5015467;28;102524;-54
2022/09/10 01:20:55;;;;;;;14.68;13.77;;;;;;;20.83;72.36;101331.84;5016355;28;102323;-55
2022/09/10 01:23:59;;;;;;;14.85;13.85;;;;;;;20.81;72.36;101329.44;5007416;28;103913;-54
2022/09/10 01:26:55;;;;;;;16.33;15.30;;;;;;;20.82;72.47;101336.59;4997937;28;101946;-54
2022/09/10 01:29:31;;;;;;;16.10;15.13;;;;;;;20.81;72.43;101343.25;5015718;28;102281;-55
2022/09/10 01:32:05;;;;;;;15.50;14.50;;;;;;;20.81;72.38;101332.19;5005244;28;102380;-55
2022/09/10 01:34:40;;;;;;;16.73;15.73;;;;;;;20.82;72.38;101328.28;4975405;28;103866;-54
2022/09/10 01:37:13;;;;;;;16.30;15.23;;;;;;;20.82;72.38;101335.78;4983911;28;102206;-55
2022/09/10 01:39:41;;;;;;;15.13;14.23;;;;;;;20.82;72.39;101335.78;5008349;28;102114;-55
2022/09/10 01:42:07;;;;;;;16.93;15.70;;;;;;;20.81;72.46;101332.19;5013526;28;102167;-55
2022/09/10 01:44:44;;;;;;;17.08;15.88;;;;;;;20.82;72.32;101330.25;5007354;28;103993;-55
2022/09/10 01:47:18;;;;;;;15.27;14.20;;;;;;;20.81;72.28;101326.66;4999306;28;102441;-55
2022/09/10 01:49:59;;;;;;;14.27;13.38;;;;;;;20.82;72.28;101319.97;4979069;28;102408;-54
2022/09/10 01:52:36;;;;;;;15.05;14.15;;;;;;;20.82;72.21;101321.94;4996007;28;102385;-55
2022/09/10 01:55:09;;;;;;;16.73;15.68;;;;;;;20.81;72.25;101318.38;5015211;28;107914;-54
2022/09/10 01:57:45;;;;;;;14.88;13.85;;;;;;;20.81;72.05;101321.13;5010444;28;102104;-54
2022/09/10 02:00:16;;;;;;;16.90;15.90;;;;;;;20.81;71.96;101318.38;5003012;28;102427;-55
2022/09/10 02:02:47;;;;;;;15.98;15.05;;;;;;;20.81;72.07;101321.13;4995362;28;102333;-55
2022/09/10 02:05:16;;;;;;;16.02;15.10;;;;;;;20.81;72.16;101323.91;4995260;28;103761;-55
2022/09/10 02:07:47;;;;;;;14.45;13.40;;;;;;;20.82;72.14;101314.44;4995199;28;102312;-55
2022/09/10 02:10:15;;;;;;;17.48;16.40;;;;;;;20.81;71.99;101312.84;4994704;28;102446;-54
2022/09/10 02:12:41;;;;;;;16.55;15.45;;;;;;;20.81;71.98;101312.03;4994749;28;102248;-55
2022/09/10 02:15:10;;;;;;;16.80;15.55;;;;;;;20.80;71.96;101316.72;5001835;28;103930;-55
2022/09/10 02:17:39;;;;;;;16.13;15.10;;;;;;;20.81;71.93;101309.25;5014336;28;102456;-55
2022/09/10 02:20:12;;;;;;;16.33;15.18;;;;;;;20.81;71.99;101315.59;5016366;28;102406;-55
2022/09/10 02:22:43;;;;;;;16.92;16.00;;;;;;;20.80;72.08;101311.19;5004115;28;102306;-55
2022/09/10 02:25:09;;;;;;;14.52;13.60;;;;;;;20.81;72.07;101306.50;4998091;28;103872;-55
2022/09/10 02:27:37;;;;;;;15.68;14.70;;;;;;;20.80;71.98;101311.19;5008715;28;102325;-54
2022/09/10 02:30:04;;;;;;;15.80;14.93;;;;;;;20.80;72.17;101311.19;5006209;28;102468;-55
2022/09/10 02:32:31;;;;;;;17.87;16.87;;;;;;;20.81;71.86;101314.78;4998939;28;103554;-55
2022/09/10 02:34:59;;;;;;;15.85;14.75;;;;;;;20.81;71.84;101314.78;4998177;28;103907;-55
2022/09/10 02:37:26;;;;;;;15.43;14.57;;;;;;;20.81;71.99;101310.06;5009927;28;102332;-54
2022/09/10 02:39:53;;;;;;;16.98;16.00;;;;;;;20.80;72.10;101313.13;5005848;28;102412;-55
2022/09/10 02:42:21;;;;;;;15.77;14.80;;;;;;;20.80;71.88;101305.66;4999135;28;102238;-54
2022/09/10 02:44:48;;;;;;;16.92;15.93;;;;;;;20.81;71.99;101312.03;5010017;28;104092;-55
2022/09/10 02:47:15;;;;;;;16.15;15.18;;;;;;;20.81;72.01;101312.03;5018132;28;102163;-55
2022/09/10 02:49:41;;;;;;;16.05;15.05;;;;;;;20.80;72.13;101300.13;5016977;28;102041;-55
2022/09/10 02:52:11;;;;;;;15.88;14.90;;;;;;;20.80;71.87;101296.53;5018397;28;102201;-55
2022/09/10 02:54:39;;;;;;;14.68;13.82;;;;;;;20.79;72.02;101287.44;5016791;28;103950;-55
2022/09/10 02:57:05;;;;;;;18.42;17.35;;;;;;;20.79;72.10;101287.44;5018051;28;102489;-55
2022/09/10 02:59:32;;;;;;;15.02;14.13;;;;;;;20.79;72.08;101292.97;5018516;28;102186;-55
2022/09/10 03:01:59;;;;;;;15.68;14.48;;;;;;;20.78;71.99;101294.13;5002650;28;102175;-55
2022/09/10 03:04:25;;;;;;;16.55;15.65;;;;;;;20.78;72.04;101294.13;4997202;28;103779;-55
2022/09/10 03:06:54;;;;;;;15.52;14.57;;;;;;;20.78;71.99;101294.13;4998010;28;102367;-55
2022/09/10 03:09:22;;;;;;;15.00;14.20;;;;;;;20.79;72.06;101292.97;4997433;28;102367;-55
2022/09/10 03:11:49;;;;;;;15.93;15.02;;;;;;;20.79;72.01;101287.44;4997764;28;103201;-55
2022/09/10 03:14:19;;;;;;;17.02;15.93;;;;;;;20.78;71.90;101285.81;4996786;28;103974;-55
2022/09/10 03:16:46;;;;;;;16.02;15.07;;;;;;;20.79;71.95;101281.91;5014953;28;102359;-55
2022/09/10 03:19:13;;;;;;;15.57;14.57;;;;;;;20.80;71.89;101300.13;5016839;28;102119;-55
2022/09/10 03:21:40;;;;;;;14.70;13.80;;;;;;;20.79;71.91;101295.72;4998009;28;102552;-56
2022/09/10 03:24:07;;;;;;;15.07;14.20;;;;;;;20.78;72.07;101291.34;4997189;28;103926;-55
2022/09/10 03:26:35;;;;;;;15.63;14.63;;;;;;;20.80;71.85;101289.06;4998376;28;102976;-55
2022/09/10 03:29:02;;;;;;;14.60;13.70;;;;;;;20.78;72.06;101291.34;4995654;28;104053;-55
2022/09/10 03:31:29;;;;;;;16.45;15.48;;;;;;;20.79;71.76;101289.38;4997921;28;102379;-55
2022/09/10 03:33:56;;;;;;;14.75;13.85;;;;;;;20.78;72.06;101296.88;4995989;28;104073;-55
2022/09/10 03:36:23;;;;;;;15.18;14.30;;;;;;;20.78;72.03;101299.66;4998275;28;102273;-55
2022/09/10 03:38:49;;;;;;;15.40;14.40;;;;;;;20.79;71.95;101301.25;4996746;28;102165;-55
2022/09/10 03:41:16;;;;;;;14.07;13.27;;;;;;;20.79;72.03;101303.22;4998392;28;102652;-55
2022/09/10 03:43:44;;;;;;;17.17;16.20;;;;;;;20.79;72.04;101311.53;4990613;28;108265;-54
2022/09/10 03:46:10;;;;;;;15.47;14.43;;;;;;;20.78;71.88;101302.41;5010308;28;102996;-54
2022/09/10 03:48:38;;;;;;;14.43;13.60;;;;;;;20.78;71.92;101307.94;5016739;28;102310;-54
2022/09/10 03:51:05;;;;;;;15.23;14.30;;;;;;;20.78;71.96;101307.94;5016733;28;102587;-54
2022/09/10 03:53:31;;;;;;;13.82;13.02;;;;;;;20.78;72.18;101302.41;4998292;28;103934;-54
2022/09/10 03:55:58;;;;;;;15.13;14.13;;;;;;;20.77;72.14;101303.56;4997554;28;102086;-55
2022/09/10 03:58:25;;;;;;;15.32;14.38;;;;;;;20.77;72.20;101306.31;4997032;28;102451;-55
2022/09/10 04:00:53;;;;;;;16.23;15.32;;;;;;;20.78;72.10;101296.88;4998538;28;102539;-56
2022/09/10 04:03:20;;;;;;;15.13;14.13;;;;;;;20.77;72.16;101303.56;5001379;28;103930;-55
2022/09/10 04:05:46;;;;;;;15.70;14.75;;;;;;;20.78;72.13;101302.41;5016592;28;102111;-55
2022/09/10 04:08:13;;;;;;;15.75;14.85;;;;;;;20.78;72.00;101305.19;5017372;28;102092;-55
2022/09/10 04:10:41;;;;;;;13.30;12.32;;;;;;;20.79;72.10;101308.75;5016401;28;102355;-55
2022/09/10 04:13:08;;;;;;;15.97;15.07;;;;;;;20.78;72.37;101305.19;5007109;28;104185;-55
2022/09/10 04:15:36;;;;;;;16.52;15.52;;;;;;;20.78;72.27;101302.41;5016304;28;103743;-55
2022/09/10 04:18:07;;;;;;;13.88;13.07;;;;;;;20.78;72.31;101301.59;5016226;28;102059;-55
2022/09/10 04:20:33;;;;;;;15.38;14.38;;;;;;;20.77;72.45;101303.56;5017939;28;102395;-55
2022/09/10 04:23:01;;;;;;;15.52;14.52;;;;;;;20.77;72.30;101305.50;5015498;28;103665;-55
2022/09/10 04:25:28;;;;;;;15.40;14.53;;;;;;;20.76;72.35;101304.69;5011644;28;102059;-55
2022/09/10 04:27:54;;;;;;;16.15;15.15;;;;;;;20.78;72.43;101310.72;4995199;28;102850;-55
2022/09/10 04:30:22;;;;;;;14.98;14.15;;;;;;;20.78;72.27;101307.13;4996268;28;102776;-55
2022/09/10 04:32:49;;;;;;;14.98;14.15;;;;;;;20.77;72.38;101311.84;5007181;27;103859;-55
2022/09/10 04:35:19;;;;;;;15.00;14.18;;;;;;;20.76;72.54;101309.41;5033014;27;102080;-55
2022/09/10 04:37:45;;;;;;;15.20;14.35;;;;;;;20.76;72.35;101304.69;5022421;28;102499;-55
2022/09/10 04:40:12;;;;;;;16.95;15.98;;;;;;;20.77;72.39;101314.63;5016728;28;102181;-55
2022/09/10 04:42:38;;;;;;;15.90;14.80;;;;;;;20.77;72.39;101311.84;5017310;28;103952;-55
2022/09/10 04:45:06;;;;;;;14.65;13.82;;;;;;;20.77;72.40;101311.84;5017397;27;102177;-55
2022/09/10 04:47:33;;;;;;;13.60;12.90;;;;;;;20.77;72.52;101319.31;5030898;27;102270;-55
2022/09/10 04:50:00;;;;;;;16.65;15.77;;;;;;;20.76;72.33;101310.22;5017723;28;102310;-55
2022/09/10 04:52:28;;;;;;;13.50;12.70;;;;;;;20.76;72.44;101312.97;5006975;28;103908;-55
2022/09/10 04:54:54;;;;;;;13.47;12.67;;;;;;;20.77;72.40;101314.63;5005044;28;103069;-55
2022/09/10 04:57:21;;;;;;;13.73;12.95;;;;;;;20.77;72.57;101317.38;5014984;28;102397;-55
2022/09/10 04:59:47;;;;;;;13.25;12.35;;;;;;;20.77;72.15;101316.56;5005404;28;102432;-55
2022/09/10 05:02:14;;;;;;;16.67;15.68;;;;;;;20.77;72.33;101325.69;4993846;28;104023;-55
2022/09/10 05:04:40;;;;;;;15.48;14.57;;;;;;;20.79;72.53;101325.34;4995298;28;102405;-55
2022/09/10 05:07:06;;;;;;;15.68;14.73;;;;;;;20.77;72.50;101328.47;4994306;28;102343;-55
2022/09/10 05:09:34;;;;;;;16.90;15.85;;;;;;;20.77;72.16;101320.16;5004652;28;102322;-56
2022/09/10 05:12:01;;;;;;;14.83;13.83;;;;;;;20.79;72.23;101319.81;4997274;28;103976;-55
2022/09/10 05:14:29;;;;;;;14.93;13.98;;;;;;;20.79;72.22;101320.63;4995724;28;102538;-55
2022/09/10 05:16:56;;;;;;;13.35;12.65;;;;;;;20.77;72.42;101322.94;5004816;28;102613;-55
2022/09/10 05:19:22;;;;;;;15.45;14.45;;;;;;;20.80;72.24;101326.97;5015254;28;102691;-55
2022/09/10 05:21:48;;;;;;;14.88;14.00;;;;;;;20.78;72.34;101324.53;5010286;28;104098;-55
2022/09/10 05:24:15;;;;;;;14.50;13.55;;;;;;;20.77;72.19;101322.94;5014518;28;102630;-55
2022/09/10 05:26:43;;;;;;;14.90;13.95;;;;;;;20.79;72.04;101317.88;5014710;28;102429;-55
2022/09/10 05:29:10;;;;;;;14.05;13.23;;;;;;;20.79;72.06;101308.75;5015351;28;102182;-56
2022/09/10 05:31:37;;;;;;;15.88;14.95;;;;;;;20.78;72.15;101307.94;5024232;27;103950;-55
2022/09/10 05:34:03;;;;;;;14.05;13.20;;;;;;;20.78;72.10;101313.47;5028839;27;102541;-55
2022/09/10 05:36:33;;;;;;;12.70;11.95;;;;;;;20.78;72.31;101301.59;5021192;27;103958;-56
2022/09/10 05:39:01;;;;;;;16.75;15.77;;;;;;;20.79;72.49;101309.56;4997815;28;102277;-55
2022/09/10 05:41:29;;;;;;;;;;;;;;;20.79;72.10;101309.56;4996979;28;103965;-55
2022/09/10 05:43:58;;;;;;;11.80;10.90;;;;;;;20.80;72.07;101310.38;5005725;28;101927;-55
2022/09/10 05:46:25;;;;;;;12.40;11.60;;;;;;;20.79;72.29;101312.34;5016371;28;101998;-55
2022/09/10 05:48:53;;;;;;;14.27;13.35;;;;;;;20.79;72.28;101314.28;5016119;28;102248;-55
2022/09/10 05:51:20;;;;;;;13.35;12.45;;;;;;;20.80;72.17;101316.72;5014963;28;103885;-55
2022/09/10 05:53:47;;;;;;;12.75;11.93;;;;;;;20.80;72.36;101313.94;4999382;28;102597;-55
2022/09/10 05:56:13;;;;;;;13.38;12.45;;;;;;;20.82;72.35;101310.88;4993789;28;102394;-55
2022/09/10 05:58:40;;;;;;;14.65;13.52;;;;;;;20.82;72.45;101313.63;4997684;28;102581;-55
2022/09/10 06:01:07;;;;;;;13.20;12.27;;;;;;;20.81;72.49;101312.84;4995688;28;104018;-55
2022/09/10 06:03:34;;;;;;;15.40;14.40;;;;;;;20.82;72.59;101316.41;4996143;28;102245;-55
2022/09/10 06:06:00;;;;;;;15.32;13.98;;;;;;;20.82;72.45;101305.34;4995276;28;102054;-55
2022/09/10 06:08:27;;;;;;;12.98;11.90;;;;;;;20.83;72.57;101309.72;5014604;28;102151;-55
2022/09/10 06:10:55;;;;;;;13.18;12.07;;;;;;;20.83;72.55;101310.53;5015833;28;104873;-55
2022/09/10 06:13:22;;;;;;;14.23;13.23;;;;;;;20.83;72.51;101302.25;5017188;28;102284;-55
2022/09/10 06:15:49;;;;;;;14.45;13.55;;;;;;;20.85;72.60;101307.47;5015368;28;102137;-56
2022/09/10 06:18:18;;;;;;;13.75;12.70;;;;;;;20.86;72.68;101317.38;5017096;28;102111;-55
2022/09/10 06:20:46;;;;;;;13.25;12.15;;;;;;;20.87;72.64;101317.03;5015206;28;103969;-55
2022/09/10 06:23:14;;;;;;;14.57;13.57;;;;;;;20.88;72.55;101313.16;4996734;28;102114;-54
2022/09/10 06:25:41;;;;;;;16.00;15.10;;;;;;;20.90;72.50;101312.00;5016050;28;101845;-55
2022/09/10 06:28:11;;;;;;;14.43;13.63;;;;;;;20.91;72.38;101313.63;4991892;28;102721;-55
2022/09/10 06:30:38;;;;;;;14.68;13.57;;;;;;;20.92;72.42;101309.75;5013530;28;104903;-55
2022/09/10 06:33:04;;;;;;;15.35;14.43;;;;;;;20.93;72.41;101308.59;4996569;28;102048;-55
2022/09/10 06:35:33;;;;;;;14.00;13.07;;;;;;;20.96;72.33;101313.47;4995631;28;102252;-55
2022/09/10 06:37:59;;;;;;;13.60;12.70;;;;;;;20.97;72.47;101309.56;4997221;28;102159;-55
2022/09/10 06:40:26;;;;;;;14.73;13.88;;;;;;;20.97;72.32;101304.03;4995380;28;103916;-56
2022/09/10 06:42:53;;;;;;;15.90;14.90;;;;;;;20.98;72.49;101305.63;4998834;28;102178;-55
2022/09/10 06:45:20;;;;;;;17.17;15.82;;;;;;;20.99;72.73;101304.50;5001214;28;102108;-55
2022/09/10 06:47:46;;;;;;;14.75;13.75;;;;;;;20.98;72.64;101309.22;5013247;28;102196;-55
2022/09/10 06:50:13;;;;;;;16.27;15.10;;;;;;;20.99;72.34;101304.50;4999475;28;103945;-55
2022/09/10 06:52:41;;;;;;;15.93;14.90;;;;;;;21.00;72.43;101308.91;4996191;28;102128;-56
2022/09/10 06:55:08;;;;;;;17.02;16.05;;;;;;;21.00;72.49;101309.72;4995723;28;102314;-55
2022/09/10 06:57:34;;;;;;;16.45;15.10;;;;;;;21.00;72.47;101309.72;4996862;28;102204;-56
2022/09/10 07:00:02;;;;;;;15.63;14.73;;;;;;;21.02;72.54;101312.13;4994489;28;103860;-55
2022/09/10 07:02:29;;;;;;;14.13;13.25;;;;;;;21.03;72.63;101322.09;4996556;28;102425;-55
2022/09/10 07:04:56;;;;;;;15.00;14.05;;;;;;;21.02;72.49;101318.47;4997890;28;102455;-55
2022/09/10 07:07:23;;;;;;;18.15;17.05;;;;;;;21.02;72.68;101329.56;4999957;28;102840;-55
2022/09/10 07:09:50;;;;;;;17.85;16.77;;;;;;;21.03;72.59;101325.66;4997548;28;104224;-55
2022/09/10 07:12:17;;;;;;;16.17;15.07;;;;;;;21.02;72.53;101326.78;4999639;28;102048;-55
2022/09/10 07:14:45;;;;;;;16.75;15.73;;;;;;;21.04;72.62;101324.53;4998935;28;102041;-55
2022/09/10 07:17:13;;;;;;;17.63;16.35;;;;;;;21.04;72.92;101321.75;5000048;28;102547;-55
2022/09/10 07:19:39;;;;;;;16.88;15.77;;;;;;;21.05;72.84;101328.91;5005205;28;103757;-55
2022/09/10 07:22:05;;;;;;;15.27;14.25;;;;;;;21.05;72.99;101317.03;5018638;28;102350;-55
2022/09/10 07:24:32;;;;;;;16.17;15.15;;;;;;;21.05;72.80;101317.03;5019088;28;102139;-55
2022/09/10 07:27:00;;;;;;;15.40;14.40;;;;;;;21.06;72.65;101318.66;5020039;28;104850;-55
2022/09/10 07:29:30;;;;;;;16.30;15.33;;;;;;;21.06;72.60;101318.66;5017586;28;104081;-55
2022/09/10 07:31:56;;;;;;;17.05;15.88;;;;;;;21.06;72.76;101315.88;5018971;28;102242;-55
2022/09/10 07:34:23;;;;;;;15.35;14.48;;;;;;;21.06;72.61;101321.41;5019144;28;101865;-55
2022/09/10 07:36:49;;;;;;;18.30;17.13;;;;;;;21.06;72.68;101318.66;5019629;28;102352;-55
2022/09/10 07:39:16;;;;;;;17.38;16.10;;;;;;;21.05;72.79;101314.25;5018256;28;103918;-55
2022/09/10 07:41:43;;;;;;;16.35;15.35;;;;;;;21.06;72.64;101313.09;5019344;28;102413;-55
2022/09/10 07:44:10;;;;;;;16.48;15.52;;;;;;;21.05;72.65;101317.03;5018230;28;102045;-55
2022/09/10 07:46:37;;;;;;;16.17;15.10;;;;;;;21.05;72.63;101315.06;5021257;27;102825;-55
2022/09/10 07:49:05;;;;;;;15.20;14.20;;;;;;;21.06;72.72;101304.81;5016164;28;103988;-55
2022/09/10 07:51:33;;;;;;;15.63;14.68;;;;;;;21.05;72.62;101309.53;5017359;28;102204;-55
2022/09/10 07:53:59;;;;;;;16.10;15.03;;;;;;;21.05;72.59;101311.50;5019424;28;102025;-55
2022/09/10 07:56:27;;;;;;;16.98;15.68;;;;;;;21.04;72.43;101309.88;5015676;28;102706;-55
2022/09/10 07:58:56;;;;;;;16.75;15.80;;;;;;;21.04;72.16;101309.88;5016433;28;103889;-55
2022/09/10 08:01:24;;;;;;;15.88;14.82;;;;;;;21.04;72.15;101307.91;5015414;28;102424;-56
2022/09/10 08:03:55;;;;;;;18.67;17.33;;;;;;;21.03;71.82;101297.19;5011457;28;101977;-55
2022/09/10 08:06:22;;;;;;;15.95;14.85;;;;;;;21.03;71.87;101288.88;5018872;28;103570;-55
2022/09/10 08:08:49;;;;;;;16.08;15.07;;;;;;;21.04;71.69;101294.06;5014997;28;104039;-55
2022/09/10 08:11:17;;;;;;;16.73;15.70;;;;;;;21.04;71.58;101285.78;5017496;28;102140;-55
2022/09/10 08:13:46;;;;;;;16.33;15.43;;;;;;;21.06;71.35;101293.75;5018356;27;102696;-55
2022/09/10 08:16:14;;;;;;;16.30;15.35;;;;;;;21.06;71.20;101290.97;5017020;28;102362;-55
2022/09/10 08:18:42;;;;;;;14.85;13.95;;;;;;;21.06;71.17;101288.19;5017126;28;103842;-55
2022/09/10 08:21:09;;;;;;;18.27;16.90;;;;;;;21.09;70.73;101288.34;5016580;28;103055;-55
2022/09/10 08:23:38;;;;;;;18.98;17.60;;;;;;;21.12;70.95;101281.38;5014992;28;102476;-55
2022/09/10 08:26:07;;;;;;;16.23;15.23;;;;;;;21.13;70.97;101285.75;5018686;27;102115;-55
2022/09/10 08:28:33;;;;;;;18.05;16.85;;;;;;;21.13;71.06;101280.22;5016759;28;104377;-55
2022/09/10 08:31:02;;;;;;;16.50;15.40;;;;;;;21.12;70.99;101289.66;5017186;28;101951;-55
2022/09/10 08:33:34;;;;;;;15.63;14.52;;;;;;;21.11;71.23;101294.38;4999426;28;101897;-56
2022/09/10 08:36:04;;;;;;;14.90;13.82;;;;;;;21.10;71.05;101297.50;5016442;28;102128;-55
2022/09/10 08:38:32;;;;;;;15.85;14.88;;;;;;;21.10;71.10;101284.47;5012604;28;104173;-55
2022/09/10 08:41:00;;;;;;;16.15;14.90;;;;;;;21.10;71.14;101269.81;5016294;28;102105;-55
2022/09/10 08:43:32;;;;;;;16.30;15.30;;;;;;;21.10;71.30;101280.91;5012299;28;101995;-55
2022/09/10 08:46:02;;;;;;;17.35;16.10;;;;;;;21.10;70.85;101270.63;5022668;28;102490;-55
2022/09/10 08:48:31;;;;;;;16.85;15.77;;;;;;;21.10;71.28;101267.88;5016268;28;103992;-55
2022/09/10 08:51:06;;;;;;;17.23;16.23;;;;;;;21.11;71.23;101265.91;5014285;28;102083;-55
2022/09/10 08:53:42;;;;;;;18.38;16.77;;;;;;;21.14;71.15;101270.78;5016019;28;102332;-55
2022/09/10 08:56:14;;;;;;;15.52;14.52;;;;;;;21.16;71.09;101260.19;5017736;28;102278;-55
2022/09/10 08:58:44;;;;;;;16.75;15.80;;;;;;;21.17;71.05;101248.00;5012232;28;103962;-55
2022/09/10 09:01:20;;;;;;;16.52;15.52;;;;;;;21.19;70.97;101255.94;5009879;28;102610;-55
2022/09/10 09:03:47;;;;;;;18.10;16.83;;;;;;;21.19;71.01;101251.22;5017335;28;102004;-56
2022/09/10 09:06:25;;;;;;;18.45;17.35;;;;;;;21.21;70.83;101242.59;5017067;28;102110;-55
2022/09/10 09:08:53;;;;;;;17.63;16.30;;;;;;;21.24;70.80;101250.22;5008702;28;104065;-55
2022/09/10 09:11:31;;;;;;;17.92;16.60;;;;;;;21.23;70.76;101246.66;5016916;27;104209;-56
2022/09/10 09:14:17;;;;;;;16.27;15.18;;;;;;;21.24;70.69;101244.69;5015838;28;102186;-56
2022/09/10 09:17:04;;;;;;;16.77;15.77;;;;;;;21.27;70.31;101246.81;5006100;28;102249;-56
2022/09/10 09:19:33;;;;;;;16.00;14.90;;;;;;;21.27;70.29;101242.06;5015560;27;103874;-57
2022/09/10 09:22:11;;;;;;;13.68;12.77;;;;;;;21.30;70.09;101252.50;5016503;28;102447;-56
2022/09/10 09:24:52;;;;;;;18.33;17.13;;;;;;;21.31;70.02;101237.53;5014028;28;102823;-56
2022/09/10 09:27:19;;;;;;;14.50;13.60;;;;;;;21.30;70.22;101227.56;5016463;28;102695;-56
2022/09/10 09:29:51;;;;;;;16.45;14.80;;;;;;;21.30;70.37;101238.66;5013653;28;104230;-56
2022/09/10 09:32:20;;;;;;;18.88;17.58;;;;;;;21.31;70.42;101237.53;5013288;28;102175;-56
2022/09/10 09:34:51;;;;;;;17.30;16.17;;;;;;;21.34;70.13;101220.25;5014868;28;102045;-56
2022/09/10 09:37:23;;;;;;;15.25;14.10;;;;;;;21.33;70.18;101215.03;5023205;27;102284;-56
2022/09/10 09:40:05;;;;;;;17.02;15.60;;;;;;;21.35;70.24;101215.56;5013181;27;104268;-56
2022/09/10 09:42:39;;;;;;;13.85;13.07;;;;;;;21.35;70.23;101221.09;4990215;28;102855;-56
2022/09/10 09:45:17;;;;;;;16.10;15.05;;;;;;;21.38;70.13;101222.38;4986995;28;102158;-56
2022/09/10 09:47:44;;;;;;;14.48;13.43;;;;;;;21.37;70.04;101234.59;5010521;28;102124;-56
2022/09/10 09:50:12;;;;;;;16.40;15.25;;;;;;;21.33;70.22;101212.25;5013937;28;104061;-56
2022/09/10 09:52:43;;;;;;;14.43;13.40;;;;;;;21.31;70.23;101215.38;5003601;28;102158;-56
2022/09/10 09:55:21;;;;;;;14.75;13.85;;;;;;;21.34;70.30;101214.72;5010482;28;102022;-56
2022/09/10 09:58:11;;;;;;;14.98;14.00;;;;;;;21.37;70.23;101215.22;5002028;28;102162;-56
2022/09/10 10:00:39;;;;;;;15.32;14.32;;;;;;;21.36;70.24;101222.72;4996238;28;104899;-56
2022/09/10 10:03:13;;;;;;;14.77;13.68;;;;;;;21.36;70.18;101219.94;4996211;28;102586;-56
2022/09/10 10:05:41;;;;;;;15.88;14.85;;;;;;;21.34;70.06;101214.72;5014943;28;102323;-55
2022/09/10 10:08:27;;;;;;;15.73;14.65;;;;;;;21.33;70.15;101213.09;5013045;28;102265;-56
2022/09/10 10:10:54;;;;;;;14.88;13.88;;;;;;;21.31;70.13;101218.16;5009820;28;103797;-56
2022/09/10 10:13:22;;;;;;;14.95;14.05;;;;;;;21.31;70.20;101209.84;4996960;28;102212;-56
2022/09/10 10:15:49;;;;;;;14.80;13.60;;;;;;;21.29;70.21;101206.56;5015721;28;102206;-56
2022/09/10 10:18:32;;;;;;;14.18;13.38;;;;;;;21.29;70.22;101212.13;5016380;28;102443;-57
2022/09/10 10:21:13;;;;;;;15.07;14.07;;;;;;;21.29;70.25;101195.50;5015697;28;103935;-56
2022/09/10 10:23:41;;;;;;;15.07;14.10;;;;;;;21.29;70.20;101201.03;5017124;28;102172;-56
2022/09/10 10:26:21;;;;;;;13.43;12.60;;;;;;;21.27;70.30;101200.56;5016120;28;102163;-57
2022/09/10 10:28:49;;;;;;;14.30;13.48;;;;;;;21.25;70.51;101191.78;5016814;28;102123;-56
2022/09/10 10:31:17;;;;;;;13.02;12.32;;;;;;;21.27;70.42;101197.78;5012852;28;103988;-56
2022/09/10 10:33:51;;;;;;;15.55;14.63;;;;;;;21.25;70.45;101194.56;5013675;28;102004;-57
2022/09/10 10:36:26;;;;;;;15.27;14.38;;;;;;;21.23;70.48;101185.75;5013090;28;102867;-57
2022/09/10 10:39:02;;;;;;;14.32;13.05;;;;;;;21.22;70.47;101186.91;5014608;28;102291;-56
2022/09/10 10:41:48;;;;;;;14.90;13.98;;;;;;;21.22;70.62;101189.66;5016733;28;104141;-56
2022/09/10 10:44:27;;;;;;;13.32;12.48;;;;;;;21.22;70.54;101200.75;5008025;28;102175;-56
2022/09/10 10:47:10;;;;;;;12.88;12.07;;;;;;;21.20;70.83;101200.25;5016912;28;102356;-56
2022/09/10 10:49:52;;;;;;;13.40;12.40;;;;;;;21.19;70.81;101201.41;5017890;28;102024;-56
2022/09/10 10:52:27;;;;;;;13.30;12.10;;;;;;;21.18;71.15;101207.28;5016658;28;104029;-56
2022/09/10 10:55:11;;;;;;;13.82;12.77;;;;;;;21.16;71.25;101209.56;5017493;28;102543;-56
2022/09/10 10:58:00;;;;;;;13.90;13.00;;;;;;;21.15;71.41;101208.75;5016675;28;102102;-56
2022/09/10 11:00:39;;;;;;;14.23;13.43;;;;;;;21.14;71.59;101204.38;5014267;28;102616;-56
2022/09/10 11:03:14;;;;;;;13.77;12.88;;;;;;;21.14;71.49;101214.63;5015634;28;103978;-56
2022/09/10 11:05:45;;;;;;;13.68;12.90;;;;;;;21.12;71.59;101212.16;5017135;28;102347;-56
2022/09/10 11:08:18;;;;;;;13.25;12.38;;;;;;;21.12;71.61;101209.41;5016754;28;103486;-56
2022/09/10 11:10:52;;;;;;;14.25;13.25;;;;;;;21.11;71.58;101205.03;5019159;27;102247;-57
2022/09/10 11:13:24;;;;;;;14.07;13.13;;;;;;;21.10;71.61;101206.19;5013902;28;107908;-56